Plato — 8PRX — position and weather

sailwx.info

Track history (hours):
 
Tides and Currents Weather Stations Pressure Air Temp Water Temp Dewpoint Dewpoint Depression Visibility Wind Speed Wind Dir Waves Ship Positions

Plato

Last reported at 2015-Feb-02 01:33 UTC. Time now 2015-Feb-02 01:46 UTC.
Position N 54°32' E 018°35'.

Length 88 m; draft 3.2 m.

Type: Ship. MMSI: 314189000.

Date/timePositionNaut miles runAvg speedWind from/ knotsBaromVisibWave heightAir tempDewpointWater temp
2015-Feb-02 01:33N 54°32' E 018°35'8 8.4
2015-Feb-02 00:33N 54°33' E 018°49'8 8.4
2015-Feb-01 23:33N 54°40' E 018°57'9 8.6
2015-Feb-01 22:33N 54°46' E 018°45'9 9.1
2015-Feb-01 21:33N 54°51' E 018°33'144 9.0
2015-Feb-01 05:29N 54°07' E 014°36'9 9.3
2015-Feb-01 04:33N 54°03' E 014°24'8 7.8
2015-Feb-01 03:33N 53°56' E 014°17'8 7.6
2015-Feb-01 02:33N 53°49' E 014°20'10 9.9
2015-Feb-01 01:33N 53°41' E 014°30'  
2015-Jan-28 00:34N 53°39' E 014°34'10 9.9
2015-Jan-27 23:33N 53°46' E 014°23'9 8.8
2015-Jan-27 22:33N 53°54' E 014°15'8 8.1
2015-Jan-27 21:33N 54°02' E 014°14'10 9.5
2015-Jan-27 20:33N 54°11' E 014°09'9 9.2
2015-Jan-27 19:33N 54°18' E 013°60'9 9.0
2015-Jan-27 18:33N 54°26' E 013°52'9 9.0
2015-Jan-27 17:33N 54°34' E 013°44'9 9.1
2015-Jan-27 16:33N 54°41' E 013°36'9 9.4
2015-Jan-27 15:33N 54°50' E 013°28'27 8.9
2015-Jan-27 12:33N 55°11' E 012°60'9 8.7
2015-Jan-27 11:33N 55°16' E 012°47'7 7.3
2015-Jan-27 10:33N 55°21' E 012°39'9 9.0
2015-Jan-27 09:33N 55°30' E 012°41'1010.2
2015-Jan-27 08:33N 55°40' E 012°41'10 9.7
2015-Jan-27 07:33N 55°50' E 012°40'10 9.6
2015-Jan-27 06:33N 55°59' E 012°38'8 8.5
2015-Jan-27 05:33N 56°07' E 012°31'8 8.0
2015-Jan-27 04:33N 56°12' E 012°19'9 8.4
2015-Jan-27 03:29N 56°17' E 012°06'16 8.2
2015-Jan-27 01:30N 56°32' E 011°57'8 8.5
2015-Jan-27 00:33N 56°40' E 011°53'9 8.5
2015-Jan-26 23:33N 56°48' E 011°50'8 8.4
2015-Jan-26 22:33N 56°56' E 011°45'17 8.5
2015-Jan-26 20:33N 57°12' E 011°34'9 8.7
2015-Jan-26 19:33N 57°20' E 011°29'9 8.8
2015-Jan-26 18:33N 57°28' E 011°22'8 7.9
2015-Jan-26 17:33N 57°33' E 011°11'8 8.1
2015-Jan-26 16:33N 57°39' E 011°00'147 8.6
2015-Jan-25 23:24N 58°01' E 006°27'7 8.1
2015-Jan-25 22:33N 58°06' E 006°18'8 7.6
2015-Jan-25 21:33N 58°11' E 006°08'7 7.2
2015-Jan-25 20:33N 58°16' E 005°58'7 7.3
2015-Jan-25 19:33N 58°21' E 005°49'9 8.8
2015-Jan-25 18:30N 58°28' E 005°36'313 6.5
2015-Jan-23 18:19N 63°35' E 007°32'  
Track history (hours):
 
Tides and Currents Weather Stations Pressure Air Temp Water Temp Dewpoint Dewpoint Depression Visibility Wind Speed Wind Dir Waves Ship Positions

Plato

Last reported at 2015-Feb-02 01:33 UTC. Time now 2015-Feb-02 01:46 UTC.
Position N 54°32' E 018°35'.

Length 88 m; draft 3.2 m.

Type: Ship. MMSI: 314189000.

Date/timePositionNaut miles runAvg speedWind from/ knotsBaromVisibWave heightAir tempDewpointWater temp
2015-Feb-02 01:33N 54°32' E 018°35'8 8.4
2015-Feb-02 00:33N 54°33' E 018°49'8 8.4
2015-Feb-01 23:33N 54°40' E 018°57'9 8.6
2015-Feb-01 22:33N 54°46' E 018°45'9 9.1
2015-Feb-01 21:33N 54°51' E 018°33'144 9.0
2015-Feb-01 05:29N 54°07' E 014°36'9 9.3
2015-Feb-01 04:33N 54°03' E 014°24'8 7.8
2015-Feb-01 03:33N 53°56' E 014°17'8 7.6
2015-Feb-01 02:33N 53°49' E 014°20'10 9.9
2015-Feb-01 01:33N 53°41' E 014°30'  
2015-Jan-28 00:34N 53°39' E 014°34'10 9.9
2015-Jan-27 23:33N 53°46' E 014°23'9 8.8
2015-Jan-27 22:33N 53°54' E 014°15'8 8.1
2015-Jan-27 21:33N 54°02' E 014°14'10 9.5
2015-Jan-27 20:33N 54°11' E 014°09'9 9.2
2015-Jan-27 19:33N 54°18' E 013°60'9 9.0
2015-Jan-27 18:33N 54°26' E 013°52'9 9.0
2015-Jan-27 17:33N 54°34' E 013°44'9 9.1
2015-Jan-27 16:33N 54°41' E 013°36'9 9.4
2015-Jan-27 15:33N 54°50' E 013°28'27 8.9
2015-Jan-27 12:33N 55°11' E 012°60'9 8.7
2015-Jan-27 11:33N 55°16' E 012°47'7 7.3
2015-Jan-27 10:33N 55°21' E 012°39'9 9.0
2015-Jan-27 09:33N 55°30' E 012°41'1010.2
2015-Jan-27 08:33N 55°40' E 012°41'10 9.7
2015-Jan-27 07:33N 55°50' E 012°40'10 9.6
2015-Jan-27 06:33N 55°59' E 012°38'8 8.5
2015-Jan-27 05:33N 56°07' E 012°31'8 8.0
2015-Jan-27 04:33N 56°12' E 012°19'9 8.4
2015-Jan-27 03:29N 56°17' E 012°06'16 8.2
2015-Jan-27 01:30N 56°32' E 011°57'8 8.5
2015-Jan-27 00:33N 56°40' E 011°53'9 8.5
2015-Jan-26 23:33N 56°48' E 011°50'8 8.4
2015-Jan-26 22:33N 56°56' E 011°45'17 8.5
2015-Jan-26 20:33N 57°12' E 011°34'9 8.7
2015-Jan-26 19:33N 57°20' E 011°29'9 8.8
2015-Jan-26 18:33N 57°28' E 011°22'8 7.9
2015-Jan-26 17:33N 57°33' E 011°11'8 8.1
2015-Jan-26 16:33N 57°39' E 011°00'147 8.6
2015-Jan-25 23:24N 58°01' E 006°27'7 8.1
2015-Jan-25 22:33N 58°06' E 006°18'8 7.6
2015-Jan-25 21:33N 58°11' E 006°08'7 7.2
2015-Jan-25 20:33N 58°16' E 005°58'7 7.3
2015-Jan-25 19:33N 58°21' E 005°49'9 8.8
2015-Jan-25 18:30N 58°28' E 005°36'313 6.5
2015-Jan-23 18:19N 63°35' E 007°32'  

Dump ship's entire track history